createdAt,value
2016-06-14T00:00:58.088Z,992.63
2016-06-14T00:01:58.076Z,992.61
2016-06-14T00:02:58.046Z,992.62
2016-06-14T00:03:58.035Z,992.59
2016-06-14T00:04:58.005Z,992.55
2016-06-14T00:05:57.994Z,992.6
2016-06-14T00:06:57.966Z,992.57
2016-06-14T00:07:57.953Z,992.58
2016-06-14T00:08:57.925Z,992.54
2016-06-14T00:09:57.896Z,992.55
2016-06-14T00:10:57.884Z,992.55
2016-06-14T00:11:57.857Z,992.52
2016-06-14T00:12:57.843Z,992.57
2016-06-14T00:13:57.815Z,992.55
2016-06-14T00:14:57.803Z,992.55
2016-06-14T00:15:57.774Z,992.56
2016-06-14T00:16:57.762Z,992.56
2016-06-14T00:17:57.734Z,992.57
2016-06-14T00:18:57.721Z,992.58
2016-06-14T00:19:57.693Z,992.58
2016-06-14T00:20:57.680Z,992.55
2016-06-14T00:21:57.652Z,992.56
2016-06-14T00:22:57.624Z,992.55
2016-06-14T00:23:57.611Z,992.52
2016-06-14T00:24:57.583Z,992.55
2016-06-14T00:25:57.570Z,992.56
2016-06-14T00:26:57.558Z,992.5
2016-06-14T00:27:57.530Z,992.51
2016-06-14T00:28:57.502Z,992.46
2016-06-14T00:29:57.489Z,992.5
2016-06-14T00:30:57.460Z,992.5
2016-06-14T00:31:57.449Z,992.52
2016-06-14T00:32:57.421Z,992.5
2016-06-14T00:33:57.407Z,992.51
2016-06-14T00:34:57.380Z,992.49
2016-06-14T00:35:57.367Z,992.47
2016-06-14T00:36:57.339Z,992.49
2016-06-14T00:37:57.326Z,992.51
2016-06-14T00:38:57.298Z,992.49
2016-06-14T00:39:57.271Z,992.53
2016-06-14T00:40:57.257Z,992.54
2016-06-14T00:41:57.229Z,992.49
2016-06-14T00:42:57.217Z,992.52
2016-06-14T00:43:57.189Z,992.49
2016-06-14T00:44:57.175Z,992.52
2016-06-14T00:45:57.144Z,992.49
2016-06-14T00:46:57.132Z,992.53
2016-06-14T00:47:57.103Z,992.47
2016-06-14T00:48:57.092Z,992.5
2016-06-14T00:49:57.063Z,992.54
2016-06-14T00:50:57.051Z,992.52
2016-06-14T00:51:57.022Z,992.52
2016-06-14T00:52:56.994Z,992.53
2016-06-14T00:53:56.997Z,992.5
2016-06-14T00:54:56.954Z,992.5
2016-06-14T00:55:56.941Z,992.48
2016-06-14T00:56:56.913Z,992.48
2016-06-14T00:57:56.901Z,992.47
2016-06-14T00:58:56.887Z,992.54
2016-06-14T00:59:57.032Z,992.49
2016-06-14T01:00:56.832Z,992.48
2016-06-14T01:01:56.819Z,992.52
2016-06-14T01:02:56.791Z,992.5
2016-06-14T01:03:56.778Z,992.45
2016-06-14T01:04:56.750Z,992.46
2016-06-14T01:05:56.738Z,992.46
2016-06-14T01:06:56.709Z,992.44
2016-06-14T01:07:56.697Z,992.44
2016-06-14T01:08:56.668Z,992.44
2016-06-14T01:09:56.656Z,992.45
2016-06-14T01:10:56.628Z,992.46
2016-06-14T01:11:56.616Z,992.45
2016-06-14T01:12:56.586Z,992.46
2016-06-14T01:13:56.559Z,992.46
2016-06-14T01:14:56.547Z,992.51
2016-06-14T01:15:56.534Z,992.46
2016-06-14T01:16:56.505Z,992.43
2016-06-14T01:17:56.477Z,992.46
2016-06-14T01:18:56.466Z,992.45
2016-06-14T01:19:56.437Z,992.4
2016-06-14T01:20:56.424Z,992.45
2016-06-14T01:21:56.396Z,992.44
2016-06-14T01:22:56.384Z,992.5
2016-06-14T01:23:56.370Z,992.45
2016-06-14T01:24:56.342Z,992.45
2016-06-14T01:25:56.315Z,992.45
2016-06-14T01:26:56.302Z,992.43
2016-06-14T01:27:56.274Z,992.44
2016-06-14T01:28:56.261Z,992.44
2016-06-14T01:29:56.249Z,992.43
2016-06-14T01:30:56.221Z,992.43
2016-06-14T01:31:56.208Z,992.4
2016-06-14T01:32:56.180Z,992.4
2016-06-14T01:33:56.167Z,992.35
2016-06-14T01:34:56.139Z,992.36
2016-06-14T01:35:56.111Z,992.36
2016-06-14T01:36:56.099Z,992.32
2016-06-14T01:37:56.070Z,992.31
2016-06-14T01:38:56.057Z,992.32
2016-06-14T01:39:56.030Z,992.3
2016-06-14T01:40:56.017Z,992.29
2016-06-14T01:41:55.988Z,992.28
2016-06-14T01:42:55.976Z,992.33
2016-06-14T01:43:55.948Z,992.31
2016-06-14T01:44:55.935Z,992.28
2016-06-14T01:45:55.923Z,992.3
2016-06-14T01:46:55.895Z,992.3
2016-06-14T01:47:55.867Z,992.31
2016-06-14T01:48:55.854Z,992.32
2016-06-14T01:49:55.841Z,992.31
2016-06-14T01:50:55.813Z,992.28
2016-06-14T01:51:55.801Z,992.27
2016-06-14T01:52:55.772Z,992.28
2016-06-14T01:53:55.760Z,992.26
2016-06-14T01:54:55.731Z,992.28
2016-06-14T01:55:55.719Z,992.26
2016-06-14T01:56:55.691Z,992.28
2016-06-14T01:57:55.679Z,992.26
2016-06-14T01:58:55.650Z,992.29
2016-06-14T01:59:55.638Z,992.24
2016-06-14T02:00:55.609Z,992.25
2016-06-14T02:01:55.597Z,992.25
2016-06-14T02:02:55.569Z,992.22
2016-06-14T02:03:55.556Z,992.21
2016-06-14T02:04:55.544Z,992.23
2016-06-14T02:05:55.515Z,992.22
2016-06-14T02:06:55.503Z,992.19
2016-06-14T02:07:55.475Z,992.18
2016-06-14T02:08:55.447Z,992.16
2016-06-14T02:09:55.434Z,992.16
2016-06-14T02:10:55.406Z,992.17
2016-06-14T02:11:55.378Z,992.18
2016-06-14T02:12:55.365Z,992.16
2016-06-14T02:13:55.353Z,992.17
2016-06-14T02:14:55.325Z,992.16
2016-06-14T02:15:55.312Z,992.13
2016-06-14T02:16:55.283Z,992.14
2016-06-14T02:17:55.255Z,992.18
2016-06-14T02:18:55.244Z,992.19
2016-06-14T02:19:55.230Z,992.12
2016-06-14T02:20:55.202Z,992.1
2016-06-14T02:21:55.174Z,992.11
2016-06-14T02:22:55.161Z,992.13
2016-06-14T02:23:55.149Z,992.15
2016-06-14T02:24:55.121Z,992.15
2016-06-14T02:25:55.093Z,992.14
2016-06-14T02:26:55.080Z,992.12
2016-06-14T02:27:55.067Z,992.13
2016-06-14T02:28:55.055Z,992.13
2016-06-14T02:29:55.011Z,992.16
2016-06-14T02:30:54.998Z,992.14
2016-06-14T02:31:54.970Z,992.09
2016-06-14T02:32:54.957Z,992.15
2016-06-14T02:33:54.945Z,992.13
2016-06-14T02:34:54.918Z,992.11
2016-06-14T02:35:54.889Z,992.12
2016-06-14T02:36:54.876Z,992.13
2016-06-14T02:37:54.848Z,992.11
2016-06-14T02:38:54.836Z,992.15
2016-06-14T02:39:54.823Z,992.13
2016-06-14T02:40:54.795Z,992.16
2016-06-14T02:41:54.767Z,992.13
2016-06-14T02:42:54.755Z,992.1
2016-06-14T02:43:54.726Z,992.11
2016-06-14T02:44:54.714Z,992.09
2016-06-14T02:45:54.686Z,992.08
2016-06-14T02:46:54.672Z,992.07
2016-06-14T02:47:54.645Z,992.1
2016-06-14T02:48:54.632Z,992.07
2016-06-14T02:49:54.604Z,992.06
2016-06-14T02:50:54.592Z,992.01
2016-06-14T02:51:54.563Z,992.09
2016-06-14T02:52:54.551Z,992.04
2016-06-14T02:53:54.554Z,992
2016-06-14T02:54:54.510Z,991.96
2016-06-14T02:55:54.482Z,991.97
2016-06-14T02:56:54.532Z,991.97
2016-06-14T02:57:54.441Z,991.98
2016-06-14T02:58:54.428Z,992
2016-06-14T02:59:54.401Z,991.96
2016-06-14T03:00:54.481Z,992.02
2016-06-14T03:01:54.360Z,991.97
2016-06-14T03:02:54.347Z,992.02
2016-06-14T03:03:54.382Z,991.99
2016-06-14T03:04:54.369Z,991.98
2016-06-14T03:05:54.278Z,991.97
2016-06-14T03:06:54.266Z,991.98
2016-06-14T03:07:54.238Z,991.96
2016-06-14T03:08:54.225Z,991.94
2016-06-14T03:09:54.196Z,991.95
2016-06-14T03:10:54.184Z,991.94
2016-06-14T03:11:54.156Z,991.92
2016-06-14T03:12:54.128Z,991.91
2016-06-14T03:13:54.116Z,991.91
2016-06-14T03:14:54.086Z,991.9
2016-06-14T03:15:54.074Z,991.9
2016-06-14T03:16:54.047Z,991.86
2016-06-14T03:17:54.034Z,991.86
2016-06-14T03:18:54.006Z,991.83
2016-06-14T03:19:53.993Z,991.82
2016-06-14T03:20:53.965Z,991.84
2016-06-14T03:21:53.952Z,991.81
2016-06-14T03:22:53.924Z,991.83
2016-06-14T03:23:53.911Z,991.79
2016-06-14T03:24:53.884Z,991.85
2016-06-14T03:25:53.870Z,991.86
2016-06-14T03:26:53.842Z,991.87
2016-06-14T03:27:53.831Z,991.86
2016-06-14T03:28:53.802Z,991.91
2016-06-14T03:29:53.789Z,991.9
2016-06-14T03:30:53.761Z,991.93
2016-06-14T03:31:53.748Z,991.96
2016-06-14T03:32:53.721Z,991.94
2016-06-14T03:33:53.708Z,991.94
2016-06-14T03:34:53.680Z,991.95
2016-06-14T03:35:53.667Z,991.98
2016-06-14T03:36:53.639Z,991.97
2016-06-14T03:37:53.626Z,991.97
2016-06-14T03:38:53.599Z,991.95
2016-06-14T03:39:53.571Z,991.98
2016-06-14T03:40:53.558Z,991.95
2016-06-14T03:41:53.544Z,991.96
2016-06-14T03:42:53.516Z,991.93
2016-06-14T03:43:53.505Z,991.9
2016-06-14T03:44:53.476Z,991.95
2016-06-14T03:45:53.667Z,991.94
2016-06-14T03:46:53.435Z,991.94
2016-06-14T03:47:53.423Z,991.95
2016-06-14T03:48:53.395Z,991.92
2016-06-14T03:49:53.382Z,991.94
2016-06-14T03:50:53.354Z,991.97
2016-06-14T03:51:53.341Z,991.96
2016-06-14T03:52:53.313Z,991.95
2016-06-14T03:53:53.300Z,991.95
2016-06-14T03:54:53.273Z,991.94
2016-06-14T03:55:53.245Z,991.9
2016-06-14T03:56:53.231Z,991.9
2016-06-14T03:57:53.204Z,991.93
2016-06-14T03:58:53.191Z,991.89
2016-06-14T03:59:53.382Z,991.91
2016-06-14T04:00:53.619Z,991.92
2016-06-14T04:01:53.122Z,991.89
2016-06-14T04:02:53.109Z,991.93
2016-06-14T04:03:53.097Z,991.95
2016-06-14T04:04:53.070Z,991.92
2016-06-14T04:05:53.056Z,991.94
2016-06-14T04:06:53.043Z,991.93
2016-06-14T04:07:53.015Z,991.91
2016-06-14T04:08:52.988Z,991.87
2016-06-14T04:09:52.975Z,991.88
2016-06-14T04:10:52.946Z,991.84
2016-06-14T04:11:52.934Z,991.82
2016-06-14T04:12:52.906Z,991.89
2016-06-14T04:13:52.893Z,991.9
2016-06-14T04:14:52.881Z,991.89
2016-06-14T04:15:52.853Z,991.9
2016-06-14T04:16:52.824Z,991.92
2016-06-14T04:17:52.812Z,991.89
2016-06-14T04:18:52.783Z,991.9
2016-06-14T04:19:52.772Z,991.88
2016-06-14T04:20:52.744Z,991.89
2016-06-14T04:21:52.730Z,991.91
2016-06-14T04:22:52.703Z,991.92
2016-06-14T04:23:52.689Z,991.91
2016-06-14T04:24:52.662Z,991.91
2016-06-14T04:25:52.649Z,991.91
2016-06-14T04:26:52.621Z,991.92
2016-06-14T04:27:52.608Z,991.92
2016-06-14T04:28:52.597Z,991.9
2016-06-14T04:29:52.567Z,991.9
2016-06-14T04:30:53.164Z,991.89
2016-06-14T04:31:52.528Z,991.86
2016-06-14T04:32:52.499Z,991.88
2016-06-14T04:33:52.486Z,991.9
2016-06-14T04:34:52.458Z,991.87
2016-06-14T04:35:52.446Z,991.88
2016-06-14T04:36:52.432Z,991.88
2016-06-14T04:37:52.404Z,991.85
2016-06-14T04:38:52.377Z,991.87
2016-06-14T04:39:52.364Z,991.89
2016-06-14T04:40:52.336Z,991.88
2016-06-14T04:41:52.323Z,991.89
2016-06-14T04:42:52.295Z,991.88
2016-06-14T04:43:52.282Z,991.91
2016-06-14T04:44:52.254Z,991.87
2016-06-14T04:45:52.241Z,991.87
2016-06-14T04:46:52.229Z,991.87
2016-06-14T04:47:52.202Z,991.88
2016-06-14T04:48:52.173Z,991.9
2016-06-14T04:49:52.160Z,991.83
2016-06-14T04:50:52.148Z,991.92
2016-06-14T04:51:52.120Z,991.92
2016-06-14T04:52:52.107Z,991.9
2016-06-14T04:53:52.079Z,991.93
2016-06-14T04:54:52.066Z,991.95
2016-06-14T04:55:52.038Z,991.9
2016-06-14T04:56:52.010Z,991.97
2016-06-14T04:57:51.998Z,991.93
2016-06-14T04:58:51.985Z,991.95
2016-06-14T04:59:51.956Z,991.93
2016-06-14T05:00:51.928Z,991.96
2016-06-14T05:01:51.916Z,991.92
2016-06-14T05:02:51.904Z,991.94
2016-06-14T05:03:51.876Z,991.96
2016-06-14T05:04:51.863Z,991.91
2016-06-14T05:05:51.835Z,991.92
2016-06-14T05:06:51.822Z,991.94
2016-06-14T05:07:51.794Z,991.93
2016-06-14T05:08:51.781Z,991.94
2016-06-14T05:09:51.753Z,991.94
2016-06-14T05:10:51.725Z,991.94
2016-06-14T05:11:51.713Z,991.94
2016-06-14T05:12:51.685Z,991.92
2016-06-14T05:13:51.672Z,991.91
2016-06-14T05:14:51.644Z,991.93
2016-06-14T05:15:51.631Z,991.94
2016-06-14T05:16:51.603Z,991.92
2016-06-14T05:17:51.590Z,991.89
2016-06-14T05:18:51.562Z,991.88
2016-06-14T05:19:51.550Z,991.9
2016-06-14T05:20:51.521Z,991.9
2016-06-14T05:21:51.509Z,991.88
2016-06-14T05:22:51.480Z,991.89
2016-06-14T05:23:51.468Z,991.87
2016-06-14T05:24:51.456Z,991.86
2016-06-14T05:25:51.428Z,991.87
2016-06-14T05:26:51.400Z,991.87
2016-06-14T05:27:51.386Z,991.9
2016-06-14T05:28:51.359Z,991.88
2016-06-14T05:29:51.346Z,991.86
2016-06-14T05:30:51.318Z,991.88
2016-06-14T05:31:51.304Z,991.89
2016-06-14T05:32:51.277Z,991.89
2016-06-14T05:33:51.264Z,991.92
2016-06-14T05:34:51.236Z,991.9
2016-06-14T05:35:51.224Z,991.89
2016-06-14T05:36:51.196Z,991.87
2016-06-14T05:37:51.183Z,991.85
2016-06-14T05:38:51.155Z,991.9
2016-06-14T05:39:51.157Z,991.91
2016-06-14T05:40:51.114Z,991.89
2016-06-14T05:41:51.102Z,991.91
2016-06-14T05:42:51.074Z,991.85
2016-06-14T05:43:51.061Z,991.87
2016-06-14T05:44:51.048Z,991.92
2016-06-14T05:45:51.020Z,991.9
2016-06-14T05:46:51.008Z,991.87
2016-06-14T05:47:50.979Z,991.86
2016-06-14T05:48:50.951Z,991.91
2016-06-14T05:49:50.939Z,991.87
2016-06-14T05:50:50.926Z,991.87
2016-06-14T05:51:50.899Z,991.88
2016-06-14T05:52:50.870Z,991.86
2016-06-14T05:53:50.858Z,991.87
2016-06-14T05:54:50.844Z,991.87
2016-06-14T05:55:50.817Z,991.86
2016-06-14T05:56:50.804Z,991.85
2016-06-14T05:57:50.776Z,991.85
2016-06-14T05:58:50.763Z,991.82
2016-06-14T05:59:50.735Z,991.84
2016-06-14T06:00:51.613Z,991.83
2016-06-14T06:01:50.694Z,991.82
2016-06-14T06:02:50.682Z,991.82
2016-06-14T06:03:50.670Z,991.82
2016-06-14T06:04:50.642Z,991.87
2016-06-14T06:05:50.628Z,991.84
2016-06-14T06:06:50.601Z,991.83
2016-06-14T06:07:50.588Z,991.83
2016-06-14T06:08:50.576Z,991.83
2016-06-14T06:09:50.547Z,991.81
2016-06-14T06:10:50.519Z,991.78
2016-06-14T06:11:50.506Z,991.78
2016-06-14T06:12:50.478Z,991.82
2016-06-14T06:13:50.466Z,991.79
2016-06-14T06:14:50.453Z,991.85
2016-06-14T06:15:50.487Z,991.9
2016-06-14T06:16:50.413Z,991.87
2016-06-14T06:17:50.399Z,991.85
2016-06-14T06:18:50.372Z,991.86
2016-06-14T06:19:50.359Z,991.88
2016-06-14T06:20:50.330Z,991.81
2016-06-14T06:21:50.319Z,991.83
2016-06-14T06:22:50.306Z,991.86
2016-06-14T06:23:50.278Z,991.85
2016-06-14T06:24:50.281Z,991.84
2016-06-14T06:25:50.237Z,991.85
2016-06-14T06:26:50.224Z,991.84
2016-06-14T06:27:50.212Z,991.85
2016-06-14T06:28:50.184Z,991.79
2016-06-14T06:29:50.171Z,991.81
2016-06-14T06:30:50.659Z,991.77
2016-06-14T06:31:50.131Z,991.77
2016-06-14T06:32:50.118Z,991.76
2016-06-14T06:33:50.106Z,991.76
2016-06-14T06:34:50.077Z,991.75
2016-06-14T06:35:50.065Z,991.74
2016-06-14T06:36:50.052Z,991.76
2016-06-14T06:37:50.024Z,991.77
2016-06-14T06:38:50.011Z,991.73
2016-06-14T06:39:49.999Z,991.75
2016-06-14T06:40:49.970Z,991.73
2016-06-14T06:41:49.958Z,991.74
2016-06-14T06:42:49.931Z,991.75
2016-06-14T06:43:49.917Z,991.76
2016-06-14T06:44:49.904Z,991.76
2016-06-14T06:45:49.902Z,991.77
2016-06-14T06:46:49.929Z,991.73
2016-06-14T06:47:49.940Z,991.76
2016-06-14T06:48:49.967Z,991.74
2016-06-14T06:49:49.994Z,991.75
2016-06-14T06:50:49.989Z,991.75
2016-06-14T06:51:49.989Z,991.77
2016-06-14T06:52:49.976Z,991.74
2016-06-14T06:53:49.977Z,991.75
2016-06-14T06:54:49.979Z,991.74
2016-06-14T06:55:49.959Z,991.74
2016-06-14T06:56:49.952Z,991.77
2016-06-14T06:57:49.927Z,991.78
2016-06-14T06:58:49.921Z,991.76
2016-06-14T06:59:49.898Z,991.76
2016-06-14T07:00:49.888Z,991.75
2016-06-14T07:01:49.877Z,991.75
2016-06-14T07:02:49.851Z,991.74
2016-06-14T07:03:49.839Z,991.72
2016-06-14T07:04:49.830Z,991.72
2016-06-14T07:05:49.802Z,991.72
2016-06-14T07:06:49.790Z,991.7
2016-06-14T07:07:49.778Z,991.69
2016-06-14T07:08:49.751Z,991.72
2016-06-14T07:09:49.722Z,991.71
2016-06-14T07:10:49.726Z,991.73
2016-06-14T07:11:49.699Z,991.68
2016-06-14T07:12:49.670Z,991.72
2016-06-14T07:13:49.658Z,991.71
2016-06-14T07:14:49.630Z,991.73
2016-06-14T07:15:49.633Z,991.72
2016-06-14T07:16:49.605Z,991.73
2016-06-14T07:17:49.577Z,991.72
2016-06-14T07:18:49.564Z,991.7
2016-06-14T07:19:49.537Z,991.72
2016-06-14T07:20:49.523Z,991.72
2016-06-14T07:21:49.496Z,991.71
2016-06-14T07:22:49.484Z,991.69
2016-06-14T07:23:49.471Z,991.7
2016-06-14T07:24:49.443Z,991.72
2016-06-14T07:25:49.430Z,991.73
2016-06-14T07:26:49.402Z,991.71
2016-06-14T07:27:49.389Z,991.72
2016-06-14T07:28:49.361Z,991.74
2016-06-14T07:29:49.348Z,991.73
2016-06-14T07:30:49.336Z,991.73
2016-06-14T07:31:49.917Z,991.75
2016-06-14T07:32:49.296Z,991.69
2016-06-14T07:33:49.283Z,991.69
2016-06-14T07:34:49.254Z,991.66
2016-06-14T07:35:49.242Z,991.68
2016-06-14T07:36:49.214Z,991.65
2016-06-14T07:37:49.200Z,991.65
2016-06-14T07:38:49.172Z,991.64
2016-06-14T07:39:49.161Z,991.62
2016-06-14T07:40:49.132Z,991.61
2016-06-14T07:41:49.120Z,991.61
2016-06-14T07:42:49.107Z,991.58
2016-06-14T07:43:49.079Z,991.63
2016-06-14T07:44:49.066Z,991.62
2016-06-14T07:45:49.039Z,991.61
2016-06-14T07:46:49.025Z,991.63
2016-06-14T07:47:49.013Z,991.6
2016-06-14T07:48:49.001Z,991.61
2016-06-14T07:49:48.973Z,991.55
2016-06-14T07:50:48.944Z,991.58
2016-06-14T07:51:48.932Z,991.62
2016-06-14T07:52:48.919Z,991.61
2016-06-14T07:53:48.891Z,991.62
2016-06-14T07:54:48.878Z,991.65
2016-06-14T07:55:48.850Z,991.61
2016-06-14T07:56:48.838Z,991.64
2016-06-14T07:57:48.810Z,991.68
2016-06-14T07:58:48.797Z,991.69
2016-06-14T07:59:48.784Z,991.66
2016-06-14T08:00:48.757Z,991.65
2016-06-14T08:01:48.743Z,991.66
2016-06-14T08:02:48.732Z,991.69
2016-06-14T08:03:48.703Z,991.68
2016-06-14T08:04:48.675Z,991.71
2016-06-14T08:05:48.662Z,991.7
2016-06-14T08:06:48.633Z,991.7
2016-06-14T08:07:48.622Z,991.68
2016-06-14T08:08:48.609Z,991.7
2016-06-14T08:09:48.581Z,991.7
2016-06-14T08:10:48.568Z,991.67
2016-06-14T08:11:48.541Z,991.69
2016-06-14T08:12:48.527Z,991.68
2016-06-14T08:13:48.499Z,991.66
2016-06-14T08:14:48.486Z,991.71
2016-06-14T08:15:48.475Z,991.65
2016-06-14T08:16:48.445Z,991.65
2016-06-14T08:17:48.417Z,991.66
2016-06-14T08:18:48.406Z,991.69
2016-06-14T08:19:48.393Z,991.7
2016-06-14T08:20:48.365Z,991.7
2016-06-14T08:21:48.352Z,991.72
2016-06-14T08:22:48.324Z,991.71
2016-06-14T08:23:48.327Z,991.74
2016-06-14T08:24:48.284Z,991.75
2016-06-14T08:25:48.270Z,991.73
2016-06-14T08:26:48.258Z,991.76
2016-06-14T08:27:48.229Z,991.75
2016-06-14T08:28:48.218Z,991.71
2016-06-14T08:29:48.205Z,991.73
2016-06-14T08:30:48.176Z,991.71
2016-06-14T08:31:48.883Z,991.7
2016-06-14T08:32:48.136Z,991.7
2016-06-14T08:33:48.122Z,991.7
2016-06-14T08:34:48.111Z,991.76
2016-06-14T08:35:48.083Z,991.76
2016-06-14T08:36:48.070Z,991.75
2016-06-14T08:37:48.057Z,991.71
2016-06-14T08:38:48.029Z,991.73
2016-06-14T08:39:48.016Z,991.74
2016-06-14T08:40:48.004Z,991.75
2016-06-14T08:41:47.977Z,991.72
2016-06-14T08:42:47.964Z,991.68
2016-06-14T08:43:47.950Z,991.76
2016-06-14T08:44:47.939Z,991.68
2016-06-14T08:45:47.909Z,991.67
2016-06-14T08:46:48.335Z,991.68
2016-06-14T08:47:47.885Z,991.69
2016-06-14T08:48:47.857Z,991.68
2016-06-14T08:49:47.844Z,991.72
2016-06-14T08:50:47.833Z,991.66
2016-06-14T08:51:47.803Z,991.67
2016-06-14T08:52:47.791Z,991.65
2016-06-14T08:53:47.778Z,991.68
2016-06-14T08:54:47.767Z,991.67
2016-06-14T08:55:47.753Z,991.58
2016-06-14T08:56:47.726Z,991.6
2016-06-14T08:57:47.713Z,991.62
2016-06-14T08:58:47.699Z,991.6
2016-06-14T08:59:47.688Z,991.61
2016-06-14T09:00:47.660Z,991.61
2016-06-14T09:01:47.647Z,991.6
2016-06-14T09:02:47.619Z,991.6
2016-06-14T09:03:47.606Z,991.62
2016-06-14T09:04:47.578Z,991.6
2016-06-14T09:05:47.565Z,991.6
2016-06-14T09:06:47.553Z,991.59
2016-06-14T09:07:47.541Z,991.64
2016-06-14T09:08:47.513Z,991.61
2016-06-14T09:09:47.499Z,991.63
2016-06-14T09:10:47.486Z,991.64
2016-06-14T09:11:47.458Z,991.66
2016-06-14T09:12:47.447Z,991.63
2016-06-14T09:13:47.418Z,991.64
2016-06-14T09:14:47.406Z,991.57
2016-06-14T09:15:47.393Z,991.61
2016-06-14T09:16:47.365Z,991.61
2016-06-14T09:17:47.352Z,991.66
2016-06-14T09:18:47.340Z,991.68
2016-06-14T09:19:47.327Z,991.66
2016-06-14T09:20:47.300Z,991.66
2016-06-14T09:21:47.286Z,991.68
2016-06-14T09:22:47.259Z,991.7
2016-06-14T09:23:47.246Z,991.68
2016-06-14T09:24:47.234Z,991.69
2016-06-14T09:25:47.205Z,991.67
2016-06-14T09:26:47.193Z,991.61
2016-06-14T09:27:47.180Z,991.58
2016-06-14T09:28:47.152Z,991.58
2016-06-14T09:29:47.139Z,991.55
2016-06-14T09:30:47.142Z,991.52
2016-06-14T09:31:47.114Z,991.52
2016-06-14T09:32:47.101Z,991.59
2016-06-14T09:33:47.074Z,991.54
2016-06-14T09:34:47.060Z,991.56
2016-06-14T09:35:47.032Z,991.57
2016-06-14T09:36:47.021Z,991.61
2016-06-14T09:37:47.008Z,991.53
2016-06-14T09:38:46.995Z,991.57
2016-06-14T09:39:46.967Z,991.55
2016-06-14T09:40:46.953Z,991.57
2016-06-14T09:41:46.942Z,991.57
2016-06-14T09:42:46.945Z,991.55
2016-06-14T09:43:46.901Z,991.58
2016-06-14T09:44:46.889Z,991.6
2016-06-14T09:45:46.876Z,991.59
2016-06-14T09:46:46.848Z,991.62
2016-06-14T09:47:46.835Z,991.61
2016-06-14T09:48:46.822Z,991.63
2016-06-14T09:49:46.811Z,991.6
2016-06-14T09:50:46.781Z,991.6
2016-06-14T09:51:46.770Z,991.59
2016-06-14T09:52:46.756Z,991.6
2016-06-14T09:53:46.729Z,991.58
2016-06-14T09:54:46.716Z,991.54
2016-06-14T09:55:46.719Z,991.54
2016-06-14T09:56:46.691Z,991.57
2016-06-14T09:57:46.663Z,991.59
2016-06-14T09:58:46.650Z,991.59
2016-06-14T09:59:46.637Z,991.59
2016-06-14T10:00:46.625Z,991.58
2016-06-14T10:01:46.613Z,991.61
2016-06-14T10:02:46.585Z,991.61
2016-06-14T10:03:46.571Z,991.57
2016-06-14T10:04:46.560Z,991.58
2016-06-14T10:05:46.531Z,991.62
2016-06-14T10:06:46.519Z,991.56
2016-06-14T10:07:46.506Z,991.58
2016-06-14T10:08:46.494Z,991.6
2016-06-14T10:09:46.465Z,991.56
2016-06-14T10:10:46.453Z,991.5
2016-06-14T10:11:46.456Z,991.51
2016-06-14T10:12:46.427Z,991.47
2016-06-14T10:13:46.415Z,991.51
2016-06-14T10:14:46.402Z,991.52
2016-06-14T10:15:46.374Z,991.48
2016-06-14T10:16:46.361Z,991.49
2016-06-14T10:17:46.350Z,991.47
2016-06-14T10:18:46.337Z,991.45
2016-06-14T10:19:46.323Z,991.4
2016-06-14T10:20:46.296Z,991.41
2016-06-14T10:21:46.284Z,991.4
2016-06-14T10:22:46.271Z,991.38
2016-06-14T10:23:46.258Z,991.4
2016-06-14T10:24:46.230Z,991.38
2016-06-14T10:25:46.217Z,991.47
2016-06-14T10:26:46.205Z,991.47
2016-06-14T10:27:46.193Z,991.46
2016-06-14T10:28:46.180Z,991.44
2016-06-14T10:29:46.167Z,991.47
2016-06-14T10:30:46.154Z,991.49
2016-06-14T10:31:46.126Z,991.48
2016-06-14T10:32:46.114Z,991.48
2016-06-14T10:33:46.086Z,991.46
2016-06-14T10:34:46.073Z,991.46
2016-06-14T10:35:46.061Z,991.45
2016-06-14T10:36:46.048Z,991.43
2016-06-14T10:37:46.036Z,991.39
2016-06-14T10:38:46.023Z,991.49
2016-06-14T10:39:45.996Z,991.5
2016-06-14T10:40:45.982Z,991.45
2016-06-14T10:41:45.970Z,991.46
2016-06-14T10:42:45.957Z,991.45
2016-06-14T10:43:45.961Z,991.43
2016-06-14T10:44:45.917Z,991.44
2016-06-14T10:45:45.903Z,991.46
2016-06-14T10:46:45.892Z,991.47
2016-06-14T10:47:45.878Z,991.45
2016-06-14T10:48:45.866Z,991.48
2016-06-14T10:49:45.854Z,991.48
2016-06-14T10:50:45.826Z,991.5
2016-06-14T10:51:45.813Z,991.49
2016-06-14T10:52:45.800Z,991.51
2016-06-14T10:53:45.789Z,991.49
2016-06-14T10:54:45.760Z,991.45
2016-06-14T10:55:45.747Z,991.49
2016-06-14T10:56:45.735Z,991.45
2016-06-14T10:57:45.722Z,991.46
2016-06-14T10:58:45.693Z,991.47
2016-06-14T10:59:45.681Z,991.41
2016-06-14T11:00:45.669Z,991.45
2016-06-14T11:01:45.657Z,991.43
2016-06-14T11:02:45.628Z,991.47
2016-06-14T11:03:45.631Z,991.47
2016-06-14T11:04:45.603Z,991.46
2016-06-14T11:05:45.590Z,991.44
2016-06-14T11:06:45.562Z,991.38
2016-06-14T11:07:45.550Z,991.39
2016-06-14T11:08:45.537Z,991.38
2016-06-14T11:09:45.524Z,991.37
2016-06-14T11:10:45.512Z,991.35
2016-06-14T11:11:45.483Z,991.37
2016-06-14T11:12:45.471Z,991.41
2016-06-14T11:13:45.458Z,991.35
2016-06-14T11:14:45.431Z,991.38
2016-06-14T11:15:45.418Z,991.32
2016-06-14T11:16:45.405Z,991.34
2016-06-14T11:17:45.393Z,991.31
2016-06-14T11:18:45.380Z,991.35
2016-06-14T11:19:45.368Z,991.34
2016-06-14T11:20:45.341Z,991.32
2016-06-14T11:21:45.327Z,991.28
2016-06-14T11:22:45.315Z,991.34
2016-06-14T11:23:45.303Z,991.31
2016-06-14T11:24:45.289Z,991.31
2016-06-14T11:25:45.262Z,991.31
2016-06-14T11:26:45.249Z,991.24
2016-06-14T11:27:45.236Z,991.25
2016-06-14T11:28:45.224Z,991.22
2016-06-14T11:29:45.211Z,991.2
2016-06-14T11:30:45.183Z,991.22
2016-06-14T11:31:45.170Z,991.2
2016-06-14T11:32:45.158Z,991.24
2016-06-14T11:33:45.145Z,991.21
2016-06-14T11:34:45.133Z,991.26
2016-06-14T11:35:45.120Z,991.28
2016-06-14T11:36:45.093Z,991.28
2016-06-14T11:37:45.080Z,991.26
2016-06-14T11:38:45.067Z,991.3
2016-06-14T11:39:45.055Z,991.23
2016-06-14T11:40:45.041Z,991.21
2016-06-14T11:41:45.014Z,991.16
2016-06-14T11:42:45.001Z,991.16
2016-06-14T11:43:44.989Z,991.19
2016-06-14T11:44:44.976Z,991.18
2016-06-14T11:45:44.963Z,991.22
2016-06-14T11:46:45.560Z,991.22
2016-06-14T11:47:47.110Z,991.19
2016-06-14T11:48:44.910Z,991.21
2016-06-14T11:49:44.898Z,991.16
2016-06-14T11:50:44.886Z,991.19
2016-06-14T11:51:44.857Z,991.18
2016-06-14T11:52:44.845Z,991.2
2016-06-14T11:53:44.831Z,991.15
2016-06-14T11:54:44.820Z,991.2
2016-06-14T11:55:44.807Z,991.16
2016-06-14T11:56:44.778Z,991.19
2016-06-14T11:57:44.766Z,991.21
2016-06-14T11:58:44.769Z,991.18
2016-06-14T11:59:44.741Z,991.17
2016-06-14T12:00:44.744Z,991.21
2016-06-14T12:01:44.716Z,991.18
2016-06-14T12:02:44.704Z,991.1
2016-06-14T12:03:44.676Z,991.19
2016-06-14T12:04:44.679Z,991.12
2016-06-14T12:05:44.649Z,991.13
2016-06-14T12:06:44.637Z,991.16
2016-06-14T12:07:44.625Z,991.12
2016-06-14T12:08:44.613Z,991.11
2016-06-14T12:09:44.600Z,991.15
2016-06-14T12:10:44.587Z,991.16
2016-06-14T12:11:44.559Z,991.1
2016-06-14T12:12:44.546Z,991.12
2016-06-14T12:13:44.534Z,991.13
2016-06-14T12:14:44.522Z,991.12
2016-06-14T12:15:44.524Z,991.17
2016-06-14T12:16:44.497Z,991.13
2016-06-14T12:17:44.483Z,991.14
2016-06-14T12:18:44.456Z,991.11
2016-06-14T12:19:44.442Z,991.16
2016-06-14T12:20:44.431Z,991.09
2016-06-14T12:21:44.418Z,991.06
2016-06-14T12:22:44.406Z,991.09
2016-06-14T12:23:44.392Z,991.1
2016-06-14T12:24:44.380Z,991.05
2016-06-14T12:25:44.353Z,991.11
2016-06-14T12:26:44.339Z,991.13
2016-06-14T12:27:44.327Z,991.08
2016-06-14T12:28:44.314Z,991.04
2016-06-14T12:29:44.302Z,991.11
2016-06-14T12:30:44.289Z,991.12
2016-06-14T12:31:44.276Z,991.08